Latest Weather Observations for Launceston Airport

IDT60801

Issued at 10:31 am EST Saturday 30 May 2015 (issued every 30 minutes, with the page automatically refreshed every 10 minutes)

About weather observations | Map of weather stations | Latest weather observations for TAS | Other Formats
Station Details ID: 091311 Name: LAUNCESTON AIRPORT Lat: -41.55 Lon: 147.21 Height: 166.9 m
Data from the previous 72 hours. | See also: Recent months at Launceston Airport
Date/Time
EST
Temp
°C
App
Temp
°C
Dew
Point
Rel
Hum
%
Delta-T
°C
Wind Press
QNH
hPa
Press
MSL
hPa
Rain
since 9 am
mm
Dir
 
Spd
km/h
Gust
km/h
Spd
kts
Gust
kts
30/10:10am 12.4 5.0 9.8 84 1.3 NNW 39 57 21 31 1007.6 1007.8 0.0
30/10:00am 11.4 3.4 9.0 85 1.2 NNW 41 54 22 29 1007.9 1008.1 0.0
30/09:44am 10.8 4.5 8.9 88 0.9 NNW 32 52 17 28 1008.2 1008.4 0.0
30/09:30am 10.3 3.4 8.9 91 0.7 NNW 35 48 19 26 1008.3 1008.5 0.0
30/09:00am 10.3 3.4 8.7 90 0.8 NNW 35 46 19 25 1008.9 1009.1 0.0
30/08:30am 9.8 3.5 9.0 95 0.4 NNW 32 41 17 22 1009.3 1009.5 0.0
30/08:28am 9.7 3.4 8.9 95 0.4 NNW 32 41 17 22 1009.3 1009.5 0.0
30/08:00am 9.5 3.9 8.9 96 0.3 NNW 28 39 15 21 1009.6 1009.8 0.0
30/07:30am 9.4 3.8 8.8 96 0.3 N 28 37 15 20 1010.2 1010.4 0.0
30/07:00am 9.2 3.9 8.4 95 0.4 N 26 33 14 18 1010.4 1010.6 0.0
30/06:30am 9.2 3.5 8.4 95 0.4 NNW 28 37 15 20 1010.7 1010.9 0.0
30/05:30am 8.9 2.4 8.0 94 0.4 NW 32 41 17 22 1011.0 1011.2 0.0
30/05:00am 8.4 1.7 7.3 93 0.5 NW 32 39 17 21 1011.3 1011.5 0.0
30/04:30am 8.5 3.4 7.6 94 0.4 NNW 24 35 13 19 1011.7 1012.0 0.0
30/04:00am 8.4 2.8 7.3 93 0.5 NNW 26 33 14 18 1012.1 1012.3 0.0
30/03:30am 8.2 2.9 6.7 90 0.7 NNW 24 33 13 18 1012.4 1012.6 0.0
30/03:00am 8.8 2.2 6.2 84 1.2 NNW 30 37 16 20 1012.7 1012.9 0.0
30/02:30am 8.5 2.3 6.0 84 1.2 NNW 28 35 15 19 1013.1 1013.3 0.0
30/02:00am 8.4 2.5 6.0 85 1.1 NNW 26 33 14 18 1013.4 1013.6 0.0
30/01:30am 8.1 2.3 6.1 87 0.9 NNW 26 33 14 18 1013.6 1013.8 0.0
30/01:00am 7.8 2.7 5.8 87 0.9 N 22 32 12 17 1014.1 1014.3 0.0
30/12:30am 8.1 3.4 6.2 88 0.9 NNW 20 28 11 15 1014.5 1014.7 0.0
30/12:00am 7.7 2.6 6.0 89 0.8 N 22 28 12 15 1014.7 1014.9 0.0
 
Date/Time
EST
Temp
°C
App
Temp
°C
Dew
Point
Rel
Hum
%
Delta-T
°C
Wind Press
QNH
hPa
Press
MSL
hPa
Rain
since 9 am
mm
Dir
 
Spd
km/h
Gust
km/h
Spd
kts
Gust
kts
29/11:30pm 7.9 2.5 6.2 89 0.8 N 24 32 13 17 1015.0 1015.2 0.0
29/11:00pm 7.6 2.5 5.9 89 0.8 N 22 28 12 15 1015.2 1015.4 0.0
29/10:30pm 7.2 3.7 5.5 89 0.8 N 13 22 7 12 1015.2 1015.4 0.0
29/10:00pm 7.0 2.3 5.0 87 0.9 NNW 19 24 10 13 1015.6 1015.8 0.0
29/09:30pm 6.7 1.7 4.5 86 1.0 NNW 20 26 11 14 1015.7 1015.9 0.0
29/09:00pm 7.0 1.7 5.2 88 0.8 NNW 22 28 12 15 1015.4 1015.6 0.0
29/08:30pm 6.8 1.9 5.1 89 0.8 NNW 20 24 11 13 1015.4 1015.6 0.0
29/08:00pm 6.1 1.0 4.3 88 0.8 NNW 20 24 11 13 1015.2 1015.4 0.0
29/07:30pm 5.9 0.8 4.1 88 0.8 NNW 20 24 11 13 1015.3 1015.5 0.0
29/07:00pm 6.7 1.3 4.5 86 1.0 NNW 22 28 12 15 1015.1 1015.3 0.0
29/06:30pm 7.1 2.6 4.2 82 1.3 NNW 17 22 9 12 1015.0 1015.2 0.0
29/06:00pm 6.7 1.8 4.0 83 1.2 N 19 20 10 11 1014.8 1015.0 0.0
29/05:30pm 6.9 3.1 3.7 80 1.4 NNW 13 17 7 9 1014.9 1015.1 0.0
29/05:00pm 8.8 3.3 4.2 73 2.0 NW 22 30 12 16 1014.5 1014.7 0.0
29/04:30pm 9.8 4.0 4.4 69 2.4 NNW 24 32 13 17 1014.2 1014.4 0.0
29/04:00pm 9.8 4.8 4.6 70 2.3 NNW 20 26 11 14 1014.0 1014.2 0.0
29/03:30pm 11.0 5.3 4.9 66 2.8 NNW 24 32 13 17 1013.8 1014.0 0.0
29/03:00pm 10.8 4.7 4.7 66 2.8 NNW 26 33 14 18 1013.8 1014.0 0.0
29/02:30pm 10.8 3.5 4.5 65 2.9 NNW 32 43 17 23 1013.8 1014.0 0.0
29/02:00pm 11.0 3.5 4.7 65 2.9 NNW 33 41 18 22 1013.8 1014.0 0.0
29/01:30pm 10.6 3.5 3.6 62 3.1 NNW 30 39 16 21 1013.7 1013.9 0.0
29/01:00pm 11.0 3.4 2.8 57 3.6 NNW 32 41 17 22 1013.7 1013.9 0.0
29/12:30pm 11.0 3.9 3.5 60 3.3 NNW 30 41 16 22 1013.9 1014.1 0.0
29/12:00pm 10.6 3.1 3.2 60 3.3 NNW 32 39 17 21 1014.0 1014.2 0.0
29/11:30am 9.9 3.1 3.2 63 2.9 NNW 28 37 15 20 1014.1 1014.3 0.0
29/11:00am 9.6 2.8 3.1 64 2.8 NNW 28 35 15 19 1014.5 1014.7 0.0
29/10:30am 9.0 2.3 3.6 69 2.4 NNW 28 35 15 19 1014.6 1014.8 0.0
29/10:00am 8.4 2.4 3.1 69 2.3 NNW 24 32 13 17 1014.4 1014.6 0.0
29/09:30am 7.4 1.4 3.1 74 1.8 NNW 24 28 13 15 1014.2 1014.4 0.0
29/09:00am 6.4 0.6 2.5 76 1.6 NNW 22 28 12 15 1014.3 1014.5 12.2
29/08:30am 5.4 -0.4 2.2 80 1.3 NNW 22 28 12 15 1014.1 1014.3 12.2
29/08:00am 4.0 -0.6 1.7 85 0.9 NNW 15 19 8 10 1013.7 1013.9 12.2
29/07:30am 3.8 -1.8 1.4 84 0.9 N 20 26 11 14 1013.6 1013.8 12.2
29/07:00am 3.2 -1.4 1.4 88 0.7 NNW 15 19 8 10 1013.0 1013.2 12.2
29/06:30am 3.6 -1.5 1.0 83 1.0 NW 17 22 9 12 1012.8 1013.0 12.2
29/06:00am 4.9 -0.6 1.9 81 1.2 NW 20 28 11 15 1012.5 1012.7 12.2
29/05:30am 5.0 -0.9 1.8 80 1.3 NNW 22 28 12 15 1012.0 1012.2 12.2
29/05:00am 4.3 -0.7 1.2 80 1.2 NNW 17 22 9 12 1011.6 1011.9 12.2
29/04:30am 5.4 0.0 2.2 80 1.3 NNW 20 28 11 15 1010.7 1010.9 12.2
29/04:00am 5.8 -0.8 2.3 78 1.4 NNW 26 39 14 21 1010.4 1010.6 12.2
29/03:30am 5.6 0.2 2.4 80 1.3 NNW 20 24 11 13 1010.5 1010.7 12.2
29/03:00am 6.2 -0.7 2.7 78 1.5 NNW 28 33 15 18 1010.1 1010.3 12.2
29/02:30am 6.8 0.4 3.2 78 1.5 NNW 26 35 14 19 1009.6 1009.8 12.2
29/02:00am 6.3 0.3 3.5 82 1.2 N 24 30 13 16 1009.4 1009.6 12.2
29/01:30am 6.6 1.1 4.1 84 1.1 NNW 22 28 12 15 1009.2 1009.4 12.2
29/01:00am 6.4 0.9 4.1 85 1.0 NNW 22 26 12 14 1009.1 1009.3 12.2
29/12:30am 6.6 0.8 4.4 86 1.0 NNW 24 30 13 16 1009.3 1009.5 12.2
29/12:00am 7.2 1.5 4.9 85 1.0 NNW 24 30 13 16 1009.2 1009.4 12.2
 
Date/Time
EST
Temp
°C
App
Temp
°C
Dew
Point
Rel
Hum
%
Delta-T
°C
Wind Press
QNH
hPa
Press
MSL
hPa
Rain
since 9 am
mm
Dir
 
Spd
km/h
Gust
km/h
Spd
kts
Gust
kts
28/11:30pm 7.3 1.6 5.1 86 1.0 NNW 24 30 13 16 1009.3 1009.5 12.2
28/11:00pm 7.5 1.5 5.5 87 0.9 NNW 26 32 14 17 1009.1 1009.3 12.2
28/10:30pm 7.9 2.0 5.7 86 1.0 NNW 26 37 14 20 1009.1 1009.3 12.2
28/10:00pm 8.0 2.2 6.1 88 0.9 NNW 26 30 14 16 1008.9 1009.1 12.2
28/09:30pm 8.7 3.0 6.8 88 0.9 N 26 35 14 19 1008.7 1008.9 12.2
28/09:00pm 9.3 3.4 7.6 89 0.8 NNW 28 37 15 20 1008.8 1009.0 12.2
28/08:30pm 9.6 5.1 8.7 94 0.4 NNW 22 28 12 15 1008.8 1009.0 12.2
28/08:00pm 10.0 4.4 8.9 93 0.5 N 28 37 15 20 1008.2 1008.4 12.2
28/07:51pm 10.1 4.2 9.0 93 0.5 N 30 37 16 20 1008.1 1008.3 12.2
28/07:30pm 10.4 5.0 9.5 94 0.5 NNW 28 35 15 19 1008.1 1008.3 12.2
28/07:00pm 10.5 4.7 9.4 93 0.6 NNW 30 37 16 20 1007.7 1007.9 11.8
28/06:39pm 10.4 4.9 9.3 93 0.6 N 28 35 15 19 1007.4 1007.6 11.8
28/06:30pm 10.3 4.8 9.1 92 0.6 N 28 33 15 18 1007.3 1007.5 11.8
28/06:00pm 10.5 4.4 8.3 86 1.1 NNW 30 43 16 23 1007.4 1007.6 11.8
28/05:47pm 10.8 4.9 8.9 88 0.9 NNW 30 39 16 21 1007.7 1007.9 11.8
28/05:33pm 10.8 5.4 9.6 92 0.6 NW 28 41 15 22 1007.8 1008.0 11.6
28/05:30pm 10.8 4.6 9.4 91 0.7 NNW 32 41 17 22 1007.8 1008.0 11.2
28/05:24pm 10.9 4.1 9.3 90 0.8 NNW 35 44 19 24 1007.6 1007.8 11.2
28/05:00pm 10.4 4.6 9.5 94 0.5 NNW 30 39 16 21 1007.1 1007.3 11.2
28/04:40pm 10.2 4.7 9.0 92 0.6 N 28 32 15 17 1007.0 1007.2 10.8
28/04:30pm 10.2 5.0 8.8 91 0.7 NNW 26 33 14 18 1007.2 1007.4 10.8
28/04:00pm 10.2 4.2 8.5 89 0.8 NNW 30 39 16 21 1007.4 1007.6 10.8
28/03:51pm 10.5 4.0 8.9 90 0.8 NNW 33 44 18 24 1007.2 1007.4 10.8
28/03:30pm 10.2 1.7 8.5 89 0.8 NW 43 63 23 34 1007.2 1007.4 10.0
28/03:27pm 10.4 2.3 8.5 88 0.9 NW 41 63 22 34 1007.2 1007.4 9.4
28/03:24pm 10.6 3.3 8.9 89 0.8 NW 37 50 20 27 1007.1 1007.3 8.2
28/03:12pm 10.7 5.2 9.3 91 0.7 NW 28 48 15 26 1006.9 1007.1 6.6
28/03:08pm 10.9 6.3 9.7 92 0.6 NW 24 32 13 17 1007.1 1007.3 5.4
28/03:07pm 10.9 6.3 9.7 92 0.6 NW 24 32 13 17 1007.1 1007.3 5.0
28/03:00pm 10.9 5.9 9.7 92 0.6 NNW 26 33 14 18 1007.2 1007.4 3.6
28/02:41pm 10.8 4.0 9.2 90 0.8 NNW 35 54 19 29 1007.4 1007.6 3.4
28/02:30pm 10.6 3.3 8.9 89 0.8 NW 37 52 20 28 1007.5 1007.7 3.2
28/02:18pm 10.6 2.5 8.7 88 0.9 NW 41 59 22 32 1007.6 1007.8 2.8
28/02:17pm 10.6 2.1 8.5 87 1.0 NW 43 59 23 32 1007.6 1007.8 2.8
28/02:06pm 10.7 1.9 8.1 84 1.3 NW 44 61 24 33 1007.7 1007.9 2.4
28/02:04pm 10.8 1.6 8.2 84 1.3 NW 46 61 25 33 1007.8 1008.0 2.2
28/02:00pm 11.3 2.1 8.2 81 1.5 NW 46 61 25 33 1007.9 1008.1 2.0
28/01:44pm 12.6 3.6 10.1 85 1.3 NNW 48 70 26 38 1007.9 1008.1 1.2
28/01:42pm 12.7 3.6 9.9 83 1.4 NNW 48 70 26 38 1007.7 1007.9 1.0
28/01:30pm 13.7 5.0 9.9 78 2.0 NNW 46 61 25 33 1007.8 1008.0 0.6
28/01:00pm 13.8 5.1 9.8 77 2.1 NNW 46 69 25 37 1008.0 1008.2 0.6
28/12:37pm 13.9 5.7 10.3 79 1.9 NNW 44 65 24 35 1008.4 1008.6 0.6
28/12:30pm 13.9 5.8 10.9 82 1.6 NNW 44 59 24 32 1008.5 1008.7 0.6
28/12:22pm 13.7 5.7 10.5 81 1.7 NNW 43 63 23 34 1008.6 1008.8 0.6
28/12:19pm 13.7 6.1 10.5 81 1.7 NNW 41 63 22 34 1008.7 1008.9 0.6
28/12:00pm 13.9 6.9 11.4 85 1.3 NNW 39 56 21 30 1009.0 1009.2 0.6
28/11:54am 13.4 6.8 11.3 87 1.1 NNW 37 56 20 30 1009.1 1009.3 0.6
28/11:52am 13.0 6.3 10.9 87 1.1 NNW 37 52 20 28 1009.2 1009.4 0.6
28/11:30am 12.8 4.9 10.7 87 1.1 NNW 43 61 23 33 1009.9 1010.1 0.6
28/11:26am 12.9 4.9 11.0 88 1.0 NNW 44 59 24 32 1010.0 1010.2 0.6
28/11:17am 13.2 6.8 10.7 85 1.3 NNW 35 59 19 32 1010.0 1010.2 0.6
28/11:00am 12.7 5.6 10.8 88 1.0 NNW 39 56 21 30 1010.3 1010.5 0.6
28/10:56am 12.6 5.1 10.8 89 0.9 NNW 41 56 22 30 1010.4 1010.6 0.6
28/10:46am 12.5 4.5 10.4 87 1.1 NNW 43 67 23 36 1010.4 1010.6 0.6
28/10:43am 12.6 4.9 10.3 86 1.2 NNW 41 67 22 36 1010.4 1010.6 0.4
28/10:30am 12.9 5.8 10.8 87 1.1 NNW 39 54 21 29 1010.7 1010.9 0.2
28/10:02am 12.9 6.6 11.1 89 1.0 NNW 35 54 19 29 1011.1 1011.3 0.2
28/10:00am 13.0 7.2 11.4 90 0.9 NNW 33 48 18 26 1011.1 1011.3 0.2
28/09:30am 11.9 7.7 11.0 94 0.5 NNW 24 33 13 18 1011.5 1011.8 0.0
28/09:04am 11.6 8.3 11.0 96 0.3 NNW 19 24 10 13 1012.0 1012.2 0.0
28/09:00am 11.4 7.8 10.6 95 0.4 NNW 20 28 11 15 1012.0 1012.2 17.6
28/08:30am 10.7 6.9 9.8 94 0.5 NNW 20 24 11 13 1012.3 1012.5 17.6
28/08:00am 10.6 5.6 9.4 92 0.6 NNW 26 35 14 19 1012.5 1012.7 17.6
28/07:30am 10.8 4.9 9.1 89 0.9 NNW 30 43 16 23 1011.8 1012.1 17.6
28/07:12am 10.9 5.6 9.7 92 0.6 NW 28 39 15 21 1012.2 1012.4 17.4
28/07:04am 10.9 4.7 9.5 91 0.7 NW 32 43 17 23 1012.1 1012.3 17.0
28/07:02am 10.9 4.5 9.5 91 0.7 NW 33 44 18 24 1012.2 1012.4 17.0
28/07:00am 10.9 4.1 9.3 90 0.8 NW 35 44 19 24 1012.1 1012.3 16.8
28/06:50am 10.8 4.5 8.9 88 0.9 WNW 32 52 17 28 1011.8 1012.1 15.6
28/06:44am 10.9 6.0 9.8 93 0.6 WNW 26 52 14 28 1012.1 1012.3 13.4
28/06:33am 11.3 7.7 10.4 94 0.5 NNW 20 28 11 15 1011.5 1011.8 11.0
28/06:30am 11.3 7.9 10.4 94 0.5 NNW 19 24 10 13 1011.4 1011.7 10.6
28/06:00am 11.2 7.5 10.3 94 0.5 NNW 20 24 11 13 1011.7 1012.0 9.6
28/05:30am 11.2 8.1 10.3 94 0.5 NNW 17 22 9 12 1012.3 1012.5 9.4
28/05:00am 11.3 7.7 10.5 95 0.4 N 20 28 11 15 1012.6 1012.8 9.4
28/04:30am 11.5 7.9 10.7 95 0.4 NNW 20 28 11 15 1012.9 1013.1 9.4
28/04:00am 11.7 7.4 10.9 95 0.4 N 24 32 13 17 1012.8 1013.0 9.4
28/03:57am 11.7 7.4 10.9 95 0.4 N 24 32 13 17 1012.7 1012.9 9.4
28/03:46am 11.6 6.9 10.7 94 0.5 NNW 26 35 14 19 1012.7 1012.9 9.4
28/03:30am 11.7 7.0 10.6 93 0.6 NNW 26 35 14 19 1012.8 1013.0 9.4
28/03:14am 11.8 5.9 11.0 95 0.4 NNW 33 43 18 23 1012.7 1012.9 9.4
28/03:01am 11.8 6.1 11.0 95 0.4 NNW 32 41 17 22 1012.6 1012.8 9.4
28/03:00am 11.8 6.1 11.0 95 0.4 NNW 32 41 17 22 1012.6 1012.8 9.4
28/02:53am 11.7 6.7 11.1 96 0.3 NNW 28 39 15 21 1012.7 1012.9 9.2
28/02:30am 11.1 8.1 10.5 96 0.3 NNW 17 20 9 11 1012.9 1013.1 6.0
28/02:25am 11.1 8.1 10.5 96 0.3 NNW 17 20 9 11 1013.0 1013.2 4.6
28/02:00am 11.0 7.0 10.4 96 0.3 N 22 28 12 15 1013.1 1013.3 3.4
28/01:30am 10.8 6.7 10.2 96 0.3 NNW 22 28 12 15 1013.6 1013.8 3.2
28/01:25am 10.7 6.6 10.1 96 0.3 NNW 22 28 12 15 1013.6 1013.8 2.8
28/01:19am 10.8 6.7 10.2 96 0.3 NNW 22 32 12 17 1013.6 1013.8 2.8
28/01:00am 10.8 6.3 10.2 96 0.3 NNW 24 32 13 17 1013.7 1013.9 2.8
28/12:38am 11.1 6.7 10.3 95 0.4 NNW 24 33 13 18 1013.9 1014.1 2.8
28/12:30am 11.2 6.8 10.3 94 0.5 NNW 24 30 13 16 1013.9 1014.1 2.8
28/12:00am 11.6 6.3 9.9 89 0.9 NW 28 37 15 20 1014.1 1014.3 2.8
 
Date/Time
EST
Temp
°C
App
Temp
°C
Dew
Point
Rel
Hum
%
Delta-T
°C
Wind Press
QNH
hPa
Press
MSL
hPa
Rain
since 9 am
mm
Dir
 
Spd
km/h
Gust
km/h
Spd
kts
Gust
kts
27/11:51pm 11.8 6.6 10.2 90 0.8 NW 28 37 15 20 1014.2 1014.4 2.8
27/11:30pm 12.0 6.3 11.1 94 0.5 NW 32 43 17 23 1014.3 1014.5 2.6
27/11:21pm 12.0 6.0 10.9 93 0.6 NNW 33 44 18 24 1014.2 1014.4 1.6
27/11:10pm 12.1 7.0 10.7 91 0.7 NNW 28 39 15 21 1014.2 1014.4 1.2
27/11:00pm 12.1 6.9 10.3 89 0.9 NNW 28 33 15 18 1014.1 1014.3 1.2
27/10:46pm 12.3 7.4 10.0 86 1.2 N 26 35 14 19 1014.1 1014.3 1.2
27/10:30pm 12.2 8.0 9.9 86 1.2 NNW 22 32 12 17 1014.2 1014.4 1.2
27/10:00pm 12.1 7.6 10.0 87 1.1 NNW 24 32 13 17 1014.5 1014.7 1.2
27/09:30pm 12.2 8.2 10.3 88 1.0 NNW 22 32 12 17 1014.9 1015.1 1.2
27/09:00pm 12.1 7.7 10.3 89 0.9 NNW 24 32 13 17 1015.2 1015.4 1.2
27/08:30pm 12.0 7.5 10.2 89 0.9 NNW 24 32 13 17 1015.1 1015.3 1.2
27/08:00pm 11.9 8.2 10.1 89 0.9 NNW 20 28 11 15 1015.2 1015.4 1.2
27/07:30pm 11.8 8.0 9.9 88 1.0 NNW 20 30 11 16 1015.5 1015.7 1.2
27/07:13pm 11.8 7.6 9.9 88 1.0 NNW 22 28 12 15 1015.5 1015.7 1.2
27/07:04pm 11.8 8.0 9.9 88 1.0 N 20 26 11 14 1015.4 1015.6 1.2
27/07:00pm 11.7 7.9 9.8 88 1.0 N 20 24 11 13 1015.4 1015.6 1.2
27/06:30pm 11.4 8.6 10.0 91 0.7 NNW 15 19 8 10 1015.5 1015.7 1.2
27/06:28pm 11.4 8.6 10.0 91 0.7 NNW 15 17 8 9 1015.5 1015.7 1.2
27/06:23pm 11.3 8.5 9.9 91 0.7 NNW 15 17 8 9 1015.6 1015.8 1.2
27/06:00pm 11.3 8.1 9.9 91 0.7 NNW 17 20 9 11 1015.5 1015.7 1.2
27/05:30pm 11.4 8.2 10.0 91 0.7 NNW 17 24 9 13 1015.5 1015.7 1.2
27/05:00pm 11.4 8.2 10.1 92 0.7 NW 17 20 9 11 1015.5 1015.7 1.2
27/04:53pm 11.4 8.2 10.1 92 0.7 NW 17 20 9 11 1015.5 1015.7 1.2
27/04:36pm 11.5 7.8 10.2 92 0.7 NNW 20 28 11 15 1015.4 1015.6 1.2
27/04:30pm 11.6 7.9 10.3 92 0.7 NNW 20 28 11 15 1015.3 1015.5 1.2
27/04:00pm 11.6 7.9 10.3 92 0.7 NNW 20 24 11 13 1015.6 1015.8 1.0
27/03:30pm 11.7 8.0 10.3 91 0.7 NNW 20 26 11 14 1015.7 1015.9 0.8
27/03:00pm 11.8 7.3 10.2 90 0.8 NNW 24 32 13 17 1015.5 1015.7 0.8
27/02:30pm 11.7 6.9 10.3 91 0.7 NNW 26 37 14 20 1015.6 1015.8 0.8
27/02:01pm 11.6 8.0 10.5 93 0.6 N 20 24 11 13 1015.7 1015.9 0.6
27/02:00pm 11.6 8.0 10.5 93 0.6 N 20 24 11 13 1015.7 1015.9 0.6
27/01:30pm 11.5 7.9 10.4 93 0.6 NNW 20 28 11 15 1016.0 1016.2 0.6
27/01:26pm 11.3 7.8 10.2 93 0.6 NNW 19 24 10 13 1016.0 1016.2 0.6
27/01:18pm 11.3 8.2 10.2 93 0.6 NNW 17 20 9 11 1016.2 1016.4 0.4
27/01:06pm 11.5 8.0 10.1 91 0.7 NNW 19 24 10 13 1016.4 1016.7 0.2
27/01:00pm 11.6 7.5 10.0 90 0.8 NNW 22 28 12 15 1016.6 1016.9 0.2
27/12:30pm 11.8 7.3 9.9 88 1.0 NNW 24 32 13 17 1016.9 1017.2 0.0
27/12:22pm 11.8 7.6 9.7 87 1.1 NNW 22 30 12 16 1016.9 1017.2 0.0
27/12:00pm 12.3 8.3 10.4 88 1.0 NNW 22 28 12 15 1017.2 1017.5 0.0
27/11:30am 11.8 7.3 10.0 89 0.9 N 24 32 13 17 1017.7 1018.0 0.0
27/11:00am 11.8 6.9 8.6 81 1.6 NNW 24 32 13 17 1018.5 1018.7 0.0

Other Formats:

Comma delimited format used in spreadsheet applications
http://www.bom.gov.au/fwo/IDT60801/IDT60801.95966.axf

JavaScript Object Notation format (JSON) in row-major order
http://www.bom.gov.au/fwo/IDT60801/IDT60801.95966.json